Time;durP1;ratioP1;P1;durP2;ratioP2;P2;SDS_P1;SDS_P2;PMS_P1;PMS_P2;Temp;Humidity;BMP_temperature;BMP_pressure;BME280_temperature;BME280_humidity;BME280_pressure;Samples;Min_cycle;Max_cycle;Signal;HPM_P1;HPM_P2
2022/06/09 00:01:45;;;;;;;42.28;7.63;;;;;;;20.29;62.06;100740.97;5011597;28;20581;-73
2022/06/09 00:04:36;;;;;;;30.58;7.13;;;;;;;19.92;63.04;100745.19;4999907;28;20044;-73
2022/06/09 00:07:07;;;;;;;30.65;6.95;;;;;;;19.85;62.40;100747.44;5008160;28;20030;-75
2022/06/09 00:09:37;;;;;;;27.15;6.85;;;;;;;20.30;61.55;100745.34;5009624;28;20037;-75
2022/06/09 00:12:03;;;;;;;30.38;7.15;;;;;;;19.68;63.09;100757.97;5011239;28;20040;-73
2022/06/09 00:14:29;;;;;;;22.40;6.40;;;;;;;19.84;63.33;100753.19;5008939;28;20045;-73
2022/06/09 00:16:56;;;;;;;28.33;6.55;;;;;;;20.34;61.19;100763.56;5006753;28;20585;-69
2022/06/09 00:19:21;;;;;;;22.15;5.32;;;;;;;19.67;63.14;100763.72;5010623;28;20038;-70
2022/06/09 00:21:47;;;;;;;31.50;8.30;;;;;;;19.60;63.57;100758.59;5010758;28;20037;-68
2022/06/09 00:24:12;;;;;;;24.85;6.35;;;;;;;19.62;63.76;100764.56;5011157;28;20038;-68
2022/06/09 00:26:38;;;;;;;23.08;7.25;;;;;;;20.01;62.50;100761.72;5011178;28;20667;-68
2022/06/09 00:29:05;;;;;;;17.30;6.00;;;;;;;20.13;61.22;100757.50;5010667;28;20029;-69
2022/06/09 00:31:30;;;;;;;22.38;6.38;;;;;;;20.44;60.40;100766.16;5010873;28;20429;-70
2022/06/09 00:33:56;;;;;;;22.63;6.25;;;;;;;20.31;61.42;100769.59;5010531;28;20030;-70
2022/06/09 00:36:22;;;;;;;27.40;7.30;;;;;;;19.77;62.38;100771.81;5010794;28;20530;-69
2022/06/09 00:38:47;;;;;;;28.48;7.28;;;;;;;19.66;62.78;100765.63;5010525;28;20544;-69
2022/06/09 00:41:13;;;;;;;31.08;7.68;;;;;;;20.29;60.71;100773.72;5010220;28;20034;-69
2022/06/09 00:43:43;;;;;;;32.47;8.13;;;;;;;20.45;60.12;100764.25;5010683;28;20422;-69
2022/06/09 00:46:17;;;;;;;34.85;6.85;;;;;;;19.24;64.46;100777.09;5010102;28;20045;-69
2022/06/09 00:48:49;;;;;;;22.40;8.48;;;;;;;20.09;61.24;100789.19;5010270;28;20066;-70
2022/06/09 00:51:36;;;;;;;25.63;6.53;;;;;;;20.17;60.68;100785.00;5004587;28;20490;-69
2022/06/09 00:54:16;;;;;;;20.92;6.95;;;;;;;19.59;62.48;100786.97;5010375;28;20552;-69
2022/06/09 00:56:48;;;;;;;28.45;8.45;;;;;;;20.18;60.48;100792.13;5010126;28;20092;-70
2022/06/09 00:59:17;;;;;;;31.00;6.78;;;;;;;19.63;62.47;100796.19;5010161;28;20493;-70
2022/06/09 01:01:43;;;;;;;23.52;7.72;;;;;;;20.23;60.35;100800.25;5009355;28;20129;-69
2022/06/09 01:04:11;;;;;;;23.55;9.05;;;;;;;20.08;60.73;100795.75;5009657;28;20042;-69
2022/06/09 01:06:54;;;;;;;29.33;8.00;;;;;;;20.35;59.81;100799.84;5010006;28;20129;-71
2022/06/09 01:09:22;;;;;;;23.67;8.43;;;;;;;20.18;60.40;100811.22;5010072;28;20116;-69
2022/06/09 01:11:53;;;;;;;21.60;7.38;;;;;;;20.14;60.75;100810.97;5009864;28;20433;-68
2022/06/09 01:14:22;;;;;;;30.52;8.40;;;;;;;20.06;61.31;100814.34;5010293;28;20034;-69
2022/06/09 01:16:56;;;;;;;31.08;9.13;;;;;;;20.11;61.05;100814.28;5010258;28;20398;-69
2022/06/09 01:19:28;;;;;;;26.27;8.82;;;;;;;20.06;61.26;100810.78;5009487;28;20124;-69
2022/06/09 01:22:23;;;;;;;30.40;8.25;;;;;;;19.87;61.97;100820.81;5010089;28;20121;-69
2022/06/09 01:25:15;;;;;;;32.85;8.40;;;;;;;19.56;62.65;100825.69;5009906;28;20061;-70
2022/06/09 01:27:59;;;;;;;30.58;9.60;;;;;;;19.65;62.67;100826.72;5010133;28;20489;-69
2022/06/09 01:31:09;;;;;;;27.48;8.63;;;;;;;19.45;63.51;100826.88;5004378;28;20061;-69
2022/06/09 01:34:07;;;;;;;31.73;8.80;;;;;;;19.96;61.45;100821.81;4968452;28;20046;-69
2022/06/09 01:36:46;;;;;;;44.22;8.52;;;;;;;19.91;61.86;100830.84;4953898;28;20046;-70
2022/06/09 01:39:11;;;;;;;29.35;8.73;;;;;;;20.19;60.93;100831.97;4968490;28;20662;-70
2022/06/09 01:41:47;;;;;;;25.35;9.00;;;;;;;19.70;63.17;100828.56;4968897;28;20078;-69
2022/06/09 01:44:12;;;;;;;29.67;9.55;;;;;;;20.13;61.07;100827.63;4968557;28;20065;-68
2022/06/09 01:46:38;;;;;;;41.88;9.82;;;;;;;20.10;60.95;100837.22;4969177;28;20046;-68
2022/06/09 01:49:14;;;;;;;44.47;10.38;;;;;;;19.96;61.45;100830.81;4968534;28;20031;-70
2022/06/09 01:51:43;;;;;;;26.48;8.70;;;;;;;19.94;62.11;100840.38;4962957;28;20035;-69
2022/06/09 01:54:16;;;;;;;41.58;10.20;;;;;;;19.84;62.22;100843.19;4968908;28;20043;-68
2022/06/09 01:56:48;;;;;;;33.80;10.50;;;;;;;20.04;61.30;100835.63;4962642;28;20483;-69
2022/06/09 01:59:19;;;;;;;39.17;10.15;;;;;;;20.05;61.89;100842.72;4968050;28;20169;-69
2022/06/09 02:01:51;;;;;;;34.47;10.40;;;;;;;19.52;63.65;100840.19;4963733;28;20043;-70
2022/06/09 02:04:24;;;;;;;27.77;9.85;;;;;;;19.87;62.74;100837.16;4968246;28;20135;-69
2022/06/09 02:06:52;;;;;;;38.00;9.52;;;;;;;20.12;61.46;100839.66;4968440;28;20488;-69
2022/06/09 02:09:17;;;;;;;31.40;10.63;;;;;;;19.92;61.92;100839.84;4981650;28;20088;-68
2022/06/09 02:11:49;;;;;;;26.98;10.10;;;;;;;19.89;62.36;100851.34;4990156;28;20454;-68
2022/06/09 02:14:17;;;;;;;24.83;9.77;;;;;;;20.30;61.17;100851.78;4988188;28;20100;-68
2022/06/09 02:16:43;;;;;;;42.08;10.50;;;;;;;20.55;60.05;100848.75;4988645;28;20451;-69
2022/06/09 02:19:08;;;;;;;33.10;9.45;;;;;;;20.31;60.14;100851.47;4993583;28;20112;-70
2022/06/09 02:21:35;;;;;;;33.42;8.68;;;;;;;20.63;59.45;100854.41;4981431;28;20428;-69
2022/06/09 02:24:02;;;;;;;31.45;9.88;;;;;;;20.13;60.69;100850.28;4991985;28;20035;-70
2022/06/09 02:26:28;;;;;;;23.75;8.38;;;;;;;20.09;60.89;100856.59;4993237;28;20093;-70
2022/06/09 02:28:54;;;;;;;28.88;9.05;;;;;;;19.97;61.20;100861.59;4993345;28;20034;-68
2022/06/09 02:31:22;;;;;;;36.10;9.55;;;;;;;20.06;61.64;100862.63;4993224;28;20026;-70
2022/06/09 02:33:48;;;;;;;36.47;9.80;;;;;;;20.73;58.70;100870.69;4993047;28;20042;-71
2022/06/09 02:36:13;;;;;;;24.23;8.90;;;;;;;20.64;59.14;100869.69;4992767;28;20035;-69
2022/06/09 02:38:39;;;;;;;30.88;9.98;;;;;;;20.64;58.95;100866.94;4993194;28;20502;-69
2022/06/09 02:41:04;;;;;;;30.50;10.55;;;;;;;20.71;58.80;100866.59;4990956;28;20513;-69
2022/06/09 02:43:30;;;;;;;27.10;11.98;;;;;;;20.20;60.42;100870.97;4993006;28;20027;-69
2022/06/09 02:45:56;;;;;;;29.23;9.88;;;;;;;20.18;60.05;100873.97;4982447;28;20043;-70
2022/06/09 02:48:22;;;;;;;27.60;9.93;;;;;;;20.26;60.57;100876.13;4995701;28;20042;-70
2022/06/09 02:50:49;;;;;;;26.60;9.57;;;;;;;20.85;58.56;100873.78;5012222;28;20040;-68
2022/06/09 02:53:15;;;;;;;34.58;9.40;;;;;;;20.51;59.66;100873.09;5001496;28;20042;-69
2022/06/09 02:55:41;;;;;;;25.25;8.63;;;;;;;19.40;63.27;100877.88;5012998;28;20358;-69
2022/06/09 02:58:07;;;;;;;29.10;9.35;;;;;;;19.92;61.71;100881.56;5012490;28;20064;-69
2022/06/09 03:00:33;;;;;;;31.33;9.85;;;;;;;20.34;59.99;100877.41;5010665;28;20034;-69
2022/06/09 03:03:01;;;;;;;36.13;9.75;;;;;;;20.30;59.85;100881.81;5012165;28;20693;-70
2022/06/09 03:05:29;;;;;;;31.15;10.70;;;;;;;20.40;59.93;100881.69;5012015;28;20566;-70
2022/06/09 03:07:55;;;;;;;30.77;9.45;;;;;;;20.65;59.10;100876.78;5012814;28;20026;-70
2022/06/09 03:10:21;;;;;;;20.45;9.55;;;;;;;20.28;59.97;100879.38;5012001;28;20662;-69
2022/06/09 03:12:46;;;;;;;26.88;10.18;;;;;;;20.27;60.67;100880.47;5011801;28;20056;-69
2022/06/09 03:15:14;;;;;;;34.15;9.65;;;;;;;19.76;61.60;100882.78;5012919;28;20033;-69
2022/06/09 03:17:40;;;;;;;26.88;8.75;;;;;;;19.38;63.63;100894.50;5006522;28;20548;-69
2022/06/09 03:20:11;;;;;;;35.15;10.45;;;;;;;20.28;59.94;100892.19;4991638;28;20166;-70
2022/06/09 03:22:36;;;;;;;21.80;8.90;;;;;;;19.86;61.37;100896.34;4992635;28;20426;-68
2022/06/09 03:25:02;;;;;;;24.77;9.65;;;;;;;20.35;60.06;100900.84;5002100;28;20042;-69
2022/06/09 03:27:28;;;;;;;29.30;10.35;;;;;;;20.58;59.11;100911.78;5010302;28;20141;-70
2022/06/09 03:29:53;;;;;;;25.83;9.52;;;;;;;20.44;59.54;100907.31;5012100;28;20034;-67
2022/06/09 03:32:19;;;;;;;30.23;11.05;;;;;;;19.83;61.01;100905.09;5011920;28;20060;-70
2022/06/09 03:34:44;;;;;;;24.67;9.32;;;;;;;20.30;59.87;100922.75;5011938;28;20037;-70
2022/06/09 03:37:09;;;;;;;33.10;11.05;;;;;;;20.17;60.17;100918.72;5011518;28;20100;-68
2022/06/09 03:39:36;;;;;;;28.42;9.98;;;;;;;20.01;60.28;100923.50;5009989;28;20034;-68
2022/06/09 03:42:02;;;;;;;26.92;10.90;;;;;;;20.41;59.57;100930.53;5011166;28;20125;-70
2022/06/09 03:44:28;;;;;;;31.90;11.77;;;;;;;19.75;61.50;100940.34;5011453;28;20725;-69
2022/06/09 03:46:54;;;;;;;21.20;9.05;;;;;;;20.18;60.38;100939.47;5011915;28;20045;-69
2022/06/09 03:49:19;;;;;;;30.55;10.57;;;;;;;20.10;60.41;100942.81;5011385;28;20042;-68
2022/06/09 03:51:45;;;;;;;29.63;9.88;;;;;;;20.58;58.88;100952.75;5011471;28;20026;-69
2022/06/09 03:54:10;;;;;;;27.00;9.75;;;;;;;19.97;60.68;100938.81;5007888;28;20034;-69
2022/06/09 03:56:36;;;;;;;25.17;10.10;;;;;;;20.52;59.04;100947.66;5001299;28;20345;-69
2022/06/09 03:59:02;;;;;;;21.88;9.60;;;;;;;20.39;59.24;100951.84;4989591;28;20031;-69
2022/06/09 04:01:28;;;;;;;22.58;9.23;;;;;;;20.73;58.60;100957.25;5003435;28;20043;-68
2022/06/09 04:03:53;;;;;;;25.23;9.23;;;;;;;20.33;59.38;100960.38;4995467;28;20092;-68
2022/06/09 04:06:22;;;;;;;42.75;11.02;;;;;;;19.21;63.80;100973.03;5010055;28;20030;-70
2022/06/09 04:08:48;;;;;;;21.80;9.07;;;;;;;20.35;59.93;100971.81;5002892;28;20656;-69
2022/06/09 04:11:17;;;;;;;21.60;8.90;;;;;;;19.76;61.58;100970.06;5010298;28;20037;-68
2022/06/09 04:13:43;;;;;;;26.17;9.60;;;;;;;19.70;61.62;100973.91;5010566;28;20482;-71
2022/06/09 04:16:36;;;;;;;27.13;9.70;;;;;;;19.66;61.76;100970.13;5010884;28;20065;-70
2022/06/09 04:19:05;;;;;;;22.38;9.20;;;;;;;20.07;60.84;100981.56;5007820;28;20125;-68
2022/06/09 04:21:32;;;;;;;21.80;9.23;;;;;;;19.83;61.62;100978.72;5009446;28;20044;-68
2022/06/09 04:23:58;;;;;;;24.20;8.77;;;;;;;20.03;60.99;100977.78;5010122;28;20159;-68
2022/06/09 04:26:27;;;;;;;25.63;8.55;;;;;;;20.44;59.80;100986.50;5010060;28;20439;-70
2022/06/09 04:28:53;;;;;;;28.15;10.00;;;;;;;20.71;58.93;100987.59;5010734;28;20541;-69
2022/06/09 04:31:19;;;;;;;33.05;9.95;;;;;;;20.72;58.77;100993.84;5010459;28;20486;-68
2022/06/09 04:34:12;;;;;;;16.25;9.52;;;;;;;20.09;61.49;100996.56;5002734;28;20132;-73
2022/06/09 04:36:38;;;;;;;18.42;7.60;;;;;;;20.36;59.98;100998.03;4999531;28;20149;-73
2022/06/09 04:39:06;;;;;;;21.38;9.38;;;;;;;20.13;61.07;100997.63;5012380;28;20051;-73
2022/06/09 04:41:31;;;;;;;16.77;8.75;;;;;;;20.22;60.64;101002.50;5005071;28;20065;-74
2022/06/09 04:43:57;;;;;;;23.05;9.05;;;;;;;21.05;58.47;101009.38;5000481;28;20533;-73
2022/06/09 04:46:24;;;;;;;19.95;8.32;;;;;;;20.01;61.25;101020.88;5007388;28;20089;-72
2022/06/09 04:48:50;;;;;;;20.33;9.40;;;;;;;20.46;60.30;101006.94;5003965;28;20053;-75
2022/06/09 04:51:18;;;;;;;19.50;9.23;;;;;;;20.41;60.20;101019.81;5007838;28;20455;-73
2022/06/09 04:53:44;;;;;;;18.05;8.77;;;;;;;19.52;63.50;101023.63;5010190;28;20033;-74
2022/06/09 04:56:10;;;;;;;18.60;8.38;;;;;;;20.07;61.30;101025.22;5011867;28;20465;-73
2022/06/09 04:58:39;;;;;;;25.15;10.45;;;;;;;19.93;62.07;101025.03;4999474;28;20176;-74
2022/06/09 05:01:17;;;;;;;25.13;8.98;;;;;;;20.08;62.41;101035.03;4992925;28;20073;-73
2022/06/09 05:03:43;;;;;;;16.83;8.32;;;;;;;20.51;60.83;101026.00;5010558;28;20038;-73
2022/06/09 05:06:08;;;;;;;26.42;8.93;;;;;;;20.08;61.55;101032.31;5005390;28;20556;-73
2022/06/09 05:08:33;;;;;;;17.75;8.23;;;;;;;20.26;61.39;101036.31;5004732;28;20038;-72
2022/06/09 05:10:59;;;;;;;14.30;8.65;;;;;;;20.59;60.46;101039.03;5005027;28;20017;-73
2022/06/09 05:13:25;;;;;;;14.80;8.00;;;;;;;20.16;61.47;101048.09;4994373;28;20042;-74
2022/06/09 05:15:54;;;;;;;15.65;8.68;;;;;;;20.91;59.94;101052.13;5010498;28;20034;-73
2022/06/09 05:18:22;;;;;;;15.80;8.30;;;;;;;20.65;60.54;101051.56;5006103;28;20045;-73
2022/06/09 05:20:49;;;;;;;14.95;8.15;;;;;;;20.37;61.41;101056.97;5000667;28;20188;-74
2022/06/09 05:23:14;;;;;;;14.90;9.18;;;;;;;20.46;61.57;101047.88;5010806;28;20456;-73
2022/06/09 05:25:40;;;;;;;19.02;7.97;;;;;;;20.63;60.55;101055.66;5013931;28;20030;-72
2022/06/09 05:28:06;;;;;;;16.92;7.10;;;;;;;20.48;61.04;101058.53;5001778;28;20034;-73
2022/06/09 05:30:31;;;;;;;20.02;8.70;;;;;;;20.72;60.42;101070.31;5002905;28;20025;-73
2022/06/09 05:32:57;;;;;;;20.45;7.82;;;;;;;20.48;60.99;101072.19;5004671;28;20046;-73
2022/06/09 05:35:22;;;;;;;17.48;7.75;;;;;;;20.37;61.98;101070.63;5003910;28;20636;-73
2022/06/09 05:46:15;;;;;;;16.25;7.88;;;;;;;20.91;59.66;101084.94;4930534;29;20051;-73
2022/06/09 05:48:42;;;;;;;11.90;7.07;;;;;;;21.16;58.45;101095.63;4932696;29;20031;-70
2022/06/09 05:51:08;;;;;;;12.45;5.90;;;;;;;21.38;58.84;101095.94;4933673;29;20131;-69
2022/06/09 05:53:33;;;;;;;15.68;6.75;;;;;;;20.96;59.91;101098.53;4934002;29;20534;-68
2022/06/09 05:55:58;;;;;;;14.30;5.63;;;;;;;20.40;61.86;101097.38;4933153;29;20047;-69
2022/06/09 05:58:25;;;;;;;8.77;5.97;;;;;;;20.60;61.34;101110.88;4933157;29;20047;-68
2022/06/09 06:00:50;;;;;;;13.10;6.25;;;;;;;21.34;58.71;101103.09;4933782;29;20210;-70
2022/06/09 06:03:16;;;;;;;13.38;5.50;;;;;;;21.20;59.30;101113.09;4932147;29;20054;-68
2022/06/09 06:08:26;;;;;;;7.75;4.40;;;;;;;21.40;59.75;101126.56;4932745;29;20069;-70
2022/06/09 06:10:53;;;;;;;11.75;5.18;;;;;;;21.41;58.94;101133.63;4933241;29;20032;-66
2022/06/09 06:13:18;;;;;;;13.20;5.15;;;;;;;21.18;59.59;101137.16;4932765;29;20047;-68
2022/06/09 06:15:44;;;;;;;13.65;5.40;;;;;;;22.02;57.91;101141.97;4951013;28;20116;-71
2022/06/09 06:18:10;;;;;;;11.50;4.93;;;;;;;21.23;60.16;101145.28;5012032;28;20045;-70
2022/06/09 06:20:35;;;;;;;10.82;4.55;;;;;;;21.02;60.45;101145.78;5010128;28;20046;-68
2022/06/09 06:23:01;;;;;;;12.88;4.57;;;;;;;21.19;60.79;101159.84;5011925;28;20679;-68
2022/06/09 06:25:27;;;;;;;12.32;5.03;;;;;;;21.13;59.98;101170.00;4994959;28;20042;-67
2022/06/09 06:27:52;;;;;;;9.77;4.57;;;;;;;21.77;58.37;101173.19;5012376;28;20092;-68
2022/06/09 06:30:19;;;;;;;11.65;4.32;;;;;;;21.51;58.28;101171.00;5007095;28;20505;-68
2022/06/09 06:32:48;;;;;;;8.30;3.88;;;;;;;21.94;58.04;101174.63;5013140;28;20038;-69
2022/06/09 06:35:14;;;;;;;8.60;4.32;;;;;;;22.31;56.86;101177.47;5013085;28;20080;-67
2022/06/09 06:37:39;;;;;;;11.82;3.80;;;;;;;21.88;57.83;101173.09;5013226;28;20026;-69
2022/06/09 06:40:05;;;;;;;12.80;4.15;;;;;;;21.92;57.01;101183.13;5012667;28;20358;-68
2022/06/09 06:42:31;;;;;;;6.80;4.47;;;;;;;21.67;58.10;101189.69;5012792;28;20122;-74
2022/06/09 06:44:57;;;;;;;7.68;3.28;;;;;;;21.75;58.14;101191.81;5014162;28;20037;-72
2022/06/09 06:47:22;;;;;;;11.50;3.65;;;;;;;21.68;57.29;101190.50;5007969;28;20045;-73
2022/06/09 06:49:48;;;;;;;7.97;3.08;;;;;;;22.12;55.85;101213.00;5001139;28;20037;-72
2022/06/09 06:52:13;;;;;;;11.57;3.33;;;;;;;22.10;56.00;101209.75;5008071;28;20042;-72
2022/06/09 06:54:38;;;;;;;11.88;3.00;;;;;;;21.35;59.19;101208.63;5005604;28;20038;-73
2022/06/09 06:57:05;;;;;;;6.22;3.55;;;;;;;21.94;56.97;101205.56;5007662;28;20056;-74
2022/06/09 06:59:32;;;;;;;9.18;3.42;;;;;;;21.62;58.52;101214.34;5001287;28;20065;-73
2022/06/09 07:01:58;;;;;;;7.75;4.10;;;;;;;22.13;56.95;101217.38;5002130;28;20087;-73
2022/06/09 07:04:23;;;;;;;7.75;2.67;;;;;;;21.84;57.42;101222.09;5007282;28;20046;-71
2022/06/09 07:06:48;;;;;;;8.25;2.92;;;;;;;22.62;55.87;101230.75;5006623;28;20026;-73
2022/06/09 07:09:14;;;;;;;5.38;2.97;;;;;;;21.86;57.04;101230.81;5005360;28;20030;-74
2022/06/09 07:11:40;;;;;;;3.70;2.08;;;;;;;22.40;55.92;101228.53;5012454;28;20042;-74
2022/06/09 07:14:05;;;;;;;6.70;2.45;;;;;;;22.19;56.24;101240.03;5011096;28;20042;-74
2022/06/09 07:16:30;;;;;;;4.55;2.00;;;;;;;21.58;57.01;101234.38;5011878;28;20037;-72
2022/06/09 07:18:56;;;;;;;8.70;2.85;;;;;;;22.30;55.11;101233.31;5007162;28;20114;-71
2022/06/09 07:21:21;;;;;;;8.20;2.17;;;;;;;22.71;53.58;101239.91;5008490;28;20038;-74
2022/06/09 07:23:47;;;;;;;7.97;2.80;;;;;;;22.58;53.30;101238.72;5011448;28;20029;-73
2022/06/09 07:26:12;;;;;;;9.98;2.10;;;;;;;22.66;54.34;101243.53;5011879;28;20026;-74
2022/06/09 07:28:38;;;;;;;8.10;2.17;;;;;;;22.24;54.64;101242.72;5011700;28;20037;-73
2022/06/09 07:31:05;;;;;;;6.38;2.40;;;;;;;21.88;55.79;101241.50;5011895;28;20520;-75
2022/06/09 07:33:34;;;;;;;8.27;2.67;;;;;;;22.52;54.03;101248.09;5011983;28;20041;-73
2022/06/09 07:36:04;;;;;;;5.57;1.52;;;;;;;22.69;54.14;101244.88;4998773;28;20591;-73
2022/06/09 07:38:30;;;;;;;15.43;1.93;;;;;;;22.77;53.00;101257.09;5011405;28;20034;-74
2022/06/09 07:40:55;;;;;;;9.18;1.98;;;;;;;22.38;54.68;101254.59;5011181;28;20084;-73
2022/06/09 07:43:21;;;;;;;4.43;2.28;;;;;;;23.35;52.26;101263.91;5011688;28;20045;-72
2022/06/09 07:45:48;;;;;;;3.40;1.67;;;;;;;22.98;52.88;101270.19;5011754;28;20493;-71
2022/06/09 07:48:14;;;;;;;4.70;2.08;;;;;;;22.40;53.40;101264.16;5011270;28;20030;-74
2022/06/09 07:50:39;;;;;;;3.95;1.38;;;;;;;22.63;52.54;101260.56;5011724;28;20065;-73
2022/06/09 07:53:05;;;;;;;3.88;1.30;;;;;;;22.83;52.12;101266.88;5012285;28;20053;-74
2022/06/09 07:55:32;;;;;;;5.32;1.63;;;;;;;22.58;52.84;101271.59;5011108;28;20029;-74
2022/06/09 07:57:58;;;;;;;5.47;1.67;;;;;;;22.97;51.70;101273.25;5012463;28;20041;-73
2022/06/09 08:00:25;;;;;;;4.88;1.92;;;;;;;23.28;50.22;101274.41;5011381;28;20486;-73
2022/06/09 08:02:51;;;;;;;3.42;1.50;;;;;;;23.17;51.43;101278.44;5010658;28;20030;-74
2022/06/09 08:05:18;;;;;;;5.10;1.10;;;;;;;22.49;51.95;101280.72;4991833;28;20513;-72
2022/06/09 08:07:44;;;;;;;8.70;1.35;;;;;;;22.51;52.18;101281.25;5009580;28;20493;-74
2022/06/09 08:10:13;;;;;;;7.35;1.40;;;;;;;22.75;51.59;101278.50;5010127;28;20030;-74
2022/06/09 08:12:39;;;;;;;10.30;2.30;;;;;;;22.84;51.70;101288.50;5009170;28;20030;-73
2022/06/09 08:15:05;;;;;;;6.43;1.48;;;;;;;23.46;50.54;101285.38;5008384;28;20455;-73
2022/06/09 08:17:31;;;;;;;2.63;1.00;;;;;;;23.49;49.33;101294.91;5010302;28;20034;-74
2022/06/09 08:19:56;;;;;;;7.25;1.23;;;;;;;22.94;51.65;101290.31;4993465;28;20042;-73
2022/06/09 08:22:22;;;;;;;6.18;1.67;;;;;;;22.88;50.71;101300.50;5010039;28;20378;-72
2022/06/09 08:24:48;;;;;;;14.15;1.88;;;;;;;23.48;48.67;101304.28;5010868;28;20091;-74
2022/06/09 08:27:13;;;;;;;3.47;1.02;;;;;;;24.30;47.35;101305.25;5011041;28;20441;-73
2022/06/09 08:29:39;;;;;;;7.28;1.58;;;;;;;23.97;48.54;101315.50;5011449;28;20044;-72
2022/06/09 08:32:05;;;;;;;6.50;1.30;;;;;;;23.13;51.18;101318.53;5010427;28;20026;-74
2022/06/09 08:34:31;;;;;;;14.93;3.10;;;;;;;23.19;52.91;101322.81;5011723;28;20386;-73
2022/06/09 08:36:56;;;;;;;10.80;1.92;;;;;;;24.71;48.95;101322.53;5010273;28;20132;-73
2022/06/09 08:39:22;;;;;;;5.95;1.50;;;;;;;24.40;47.46;101327.03;5010545;28;20485;-73
2022/06/09 08:41:58;;;;;;;5.45;1.33;;;;;;;24.25;47.72;101330.88;5010005;28;20038;-73
2022/06/09 08:44:29;;;;;;;6.22;1.25;;;;;;;24.69;47.41;101340.44;5007952;28;20060;-74
2022/06/09 08:47:20;;;;;;;5.72;1.23;;;;;;;23.53;48.08;101340.66;4992821;28;20037;-71
2022/06/09 08:50:06;;;;;;;3.90;1.10;;;;;;;24.33;45.14;101348.63;5007668;28;20073;-74
2022/06/09 08:52:43;;;;;;;2.90;0.80;;;;;;;23.97;47.02;101347.63;5007017;28;20038;-74
2022/06/09 08:55:24;;;;;;;9.02;1.40;;;;;;;23.09;48.16;101353.94;5009137;28;20034;-69
2022/06/09 08:57:51;;;;;;;;;;;;;;;23.45;48.13;101363.28;4993570;28;20076;-74
2022/06/09 09:00:20;;;;;;;4.75;0.80;;;;;;;22.85;47.07;101355.09;5010487;28;19925;-73
2022/06/09 09:02:52;;;;;;;2.92;1.20;;;;;;;23.29;46.81;101364.59;5010811;28;20041;-69
2022/06/09 09:05:38;;;;;;;9.68;1.30;;;;;;;23.89;46.05;101367.53;5010391;28;20044;-72
2022/06/09 09:08:06;;;;;;;5.03;1.20;;;;;;;23.91;45.87;101368.84;5006795;28;20138;-73
2022/06/09 09:10:38;;;;;;;5.25;0.82;;;;;;;24.50;45.23;101373.56;5010731;28;20025;-73
2022/06/09 09:13:19;;;;;;;2.17;0.70;;;;;;;23.48;45.33;101381.09;5002172;28;20459;-70
2022/06/09 09:15:46;;;;;;;;;;;;;;;23.50;44.18;101382.44;5010394;28;20062;-73
2022/06/09 09:18:35;;;;;;;6.85;1.13;;;;;;;23.31;44.38;101389.84;5008302;28;19918;-74
2022/06/09 09:21:19;;;;;;;2.50;0.60;;;;;;;24.10;43.42;101391.59;5009145;28;20038;-74
2022/06/09 09:23:50;;;;;;;2.00;0.50;;;;;;;23.80;43.99;101389.38;5010032;28;20038;-74
2022/06/09 09:26:28;;;;;;;3.60;1.23;;;;;;;23.35;46.33;101392.81;5009455;28;20026;-74
2022/06/09 09:29:05;;;;;;;5.53;1.23;;;;;;;23.61;44.61;101402.28;5006883;28;20531;-73
2022/06/09 09:31:56;;;;;;;3.90;0.95;;;;;;;24.10;44.06;101402.59;5009406;28;20038;-75
2022/06/09 09:34:34;;;;;;;6.18;0.93;;;;;;;24.34;44.50;101402.44;5006864;28;20419;-73
2022/06/09 09:37:13;;;;;;;4.07;0.77;;;;;;;23.68;44.62;101408.22;5008656;28;20045;-74
2022/06/09 09:39:43;;;;;;;3.78;0.82;;;;;;;24.29;43.75;101405.28;5010104;28;20037;-73
2022/06/09 09:42:25;;;;;;;6.80;1.33;;;;;;;24.74;43.53;101409.94;5009966;28;20096;-73
2022/06/09 09:45:19;;;;;;;3.55;0.90;;;;;;;24.39;42.51;101408.66;5008314;28;20084;-73
2022/06/09 09:47:47;;;;;;;2.58;0.93;;;;;;;25.03;42.28;101426.09;4962343;28;20557;-73
2022/06/09 09:50:57;;;;;;;4.28;0.73;;;;;;;24.13;43.73;101423.97;4979197;28;20066;-72
2022/06/09 09:53:51;;;;;;;4.95;1.35;;;;;;;24.41;43.98;101428.41;4921791;29;20138;-73
2022/06/09 09:56:16;;;;;;;2.70;0.57;;;;;;;24.33;41.74;101436.53;4919266;29;20071;-70
2022/06/09 09:58:47;;;;;;;1.58;0.45;;;;;;;24.36;41.47;101433.16;4909384;29;20498;-72
2022/06/09 10:01:24;;;;;;;5.38;0.90;;;;;;;24.30;42.71;101437.94;4924353;29;20134;-73
2022/06/09 10:09:33;;;;;;;4.95;0.93;;;;;;;24.06;43.42;101459.22;4923355;29;20091;-71
2022/06/09 10:12:09;;;;;;;2.92;0.60;;;;;;;24.47;42.84;101466.78;4921377;29;20031;-71
2022/06/09 10:15:09;;;;;;;3.47;0.60;;;;;;;24.05;42.98;101465.03;4923343;29;20040;-72
2022/06/09 10:17:51;;;;;;;4.20;0.60;;;;;;;24.27;41.82;101465.22;4890848;29;20080;-72
2022/06/09 10:20:22;;;;;;;3.03;1.25;;;;;;;24.70;41.48;101469.38;4888253;29;20053;-71
2022/06/09 10:23:19;;;;;;;2.60;0.57;;;;;;;24.51;42.08;101474.09;4889869;29;20544;-71
2022/06/09 10:26:07;;;;;;;4.05;0.73;;;;;;;24.16;42.73;101482.97;4940417;29;20081;-72
2022/06/09 10:28:54;;;;;;;2.28;0.88;;;;;;;24.71;42.59;101489.41;4939813;28;20055;-70
2022/06/09 10:31:22;;;;;;;3.17;0.93;;;;;;;25.14;40.47;101480.59;4932614;29;20048;-69
2022/06/09 10:33:55;;;;;;;5.88;1.67;;;;;;;24.23;41.07;101499.91;4936276;28;20043;-71
2022/06/09 10:36:24;;;;;;;4.07;1.00;;;;;;;24.87;41.66;101497.09;4934071;29;20050;-71
2022/06/09 10:39:12;;;;;;;8.30;2.17;;;;;;;25.04;40.67;101493.75;4949498;28;20046;-72
2022/06/09 10:41:43;;;;;;;3.28;0.93;;;;;;;24.73;42.56;101500.94;4945955;28;20044;-71
2022/06/09 10:44:28;;;;;;;;;;;;;;;23.62;42.68;101499.97;4946814;29;20567;-71
2022/06/09 10:56:09;;;;;;;5.18;1.23;;;;;;;25.28;41.14;101525.44;4967483;28;20451;-73
2022/06/09 10:58:42;;;;;;;4.35;1.05;;;;;;;24.01;43.09;101519.72;4952421;28;20109;-73
2022/06/09 11:01:19;;;;;;;6.65;1.27;;;;;;;24.63;42.42;101525.88;4961083;28;20047;-70
2022/06/09 11:03:48;;;;;;;4.22;0.90;;;;;;;24.85;41.74;101524.09;4952482;28;20071;-71
2022/06/09 11:06:43;;;;;;;5.75;1.23;;;;;;;24.29;41.85;101531.66;4960716;28;20058;-74
2022/06/09 11:09:47;;;;;;;5.88;1.27;;;;;;;24.12;43.52;101520.38;4959515;28;20041;-73
2022/06/09 11:12:42;;;;;;;7.07;1.35;;;;;;;24.25;43.19;101531.41;4932296;29;20608;-72
2022/06/09 11:15:13;;;;;;;6.97;1.40;;;;;;;25.70;40.93;101534.47;4929913;29;20043;-72
2022/06/09 11:17:52;;;;;;;2.67;1.35;;;;;;;24.38;42.22;101538.09;4920048;29;20046;-73
2022/06/09 11:20:46;;;;;;;7.68;0.90;;;;;;;24.58;41.29;101537.75;4908479;29;20524;-73
2022/06/09 11:23:52;;;;;;;3.17;0.73;;;;;;;24.85;40.69;101528.75;4913723;29;20056;-73
2022/06/09 11:26:33;;;;;;;6.88;1.00;;;;;;;25.07;40.81;101534.41;4920044;29;20051;-72
2022/06/09 11:29:40;;;;;;;4.30;0.70;;;;;;;25.67;38.82;101546.13;4924120;29;20028;-74
2022/06/09 11:32:11;;;;;;;4.68;0.93;;;;;;;25.79;40.04;101536.19;4923806;28;20039;-75
2022/06/09 11:34:48;;;;;;;5.63;1.20;;;;;;;25.12;40.26;101546.09;4952230;28;20484;-73
2022/06/09 11:37:28;;;;;;;4.10;1.27;;;;;;;23.87;42.35;101559.19;4951088;28;20046;-73
2022/06/09 11:40:16;;;;;;;4.53;1.40;;;;;;;23.31;41.81;101556.38;4969404;28;20035;-73
2022/06/09 11:43:11;;;;;;;6.30;1.33;;;;;;;24.23;41.05;101550.16;4949572;28;20134;-74
2022/06/09 11:45:45;;;;;;;2.35;0.60;;;;;;;25.52;39.48;101557.44;4947794;28;20115;-74
2022/06/09 11:48:28;;;;;;;7.78;1.33;;;;;;;25.71;38.88;101569.97;4948405;28;20042;-73
2022/06/09 11:50:55;;;;;;;4.38;1.05;;;;;;;25.34;37.66;101558.34;4987308;28;20042;-74
2022/06/09 11:53:25;;;;;;;4.53;0.82;;;;;;;25.99;37.13;101557.75;4984354;28;20602;-73
2022/06/09 11:56:00;;;;;;;9.40;1.02;;;;;;;25.94;38.24;101566.16;4984970;28;20038;-74
2022/06/09 11:58:34;;;;;;;10.32;1.55;;;;;;;24.29;40.82;101581.91;4971377;28;20057;-71
2022/06/09 12:01:05;;;;;;;5.40;0.95;;;;;;;25.71;38.47;101572.72;4961820;28;20045;-73
2022/06/09 12:03:43;;;;;;;8.45;1.45;;;;;;;26.06;37.88;101574.69;4970156;28;20387;-74
2022/06/09 12:07:01;;;;;;;7.82;1.67;;;;;;;25.35;37.15;101591.06;4965412;28;20121;-73